Aérodrome :
LOGIN :

S'inscrire | Disclaimer

   EN    FR    IT 

 










Légende :    VFR   VFR Marginal   IFR   IFR Intensif   IFR Très Intensif
Visi : 
Plafond : 
>= 8 km
>= 3000ft
5 à 8 km
1000 à 3000 ft
1500m à 5 km
500 à 1000 ft
800 à 1500m
200 à 500 ft
< 800m
< 200 ft
Symboles :   Orages  Brouillard  Fortes neiges  Fortes précipitations  Vent > 20 kt
SIGMETs :   Divers  Orages  Givrage  Turbulence  Onde Orograph.  Cendres Volcan.






- Altitude de l'aérodrome : 1302 ft
- Code IATA : GNB


LFLS - Grenoble / St. Geoirs

DERNIER METAR :
  • 251900Z AUTO 35010KT 320V020 9999 OVC060 19/07 Q1020 NOSIG

METARs EXPIRÉS :
  • 251830Z AUTO 34014KT 9999 BKN062 OVC080 19/07 Q1020 NOSIG
  • 251800Z AUTO 34012KT 9999 BKN064 OVC076 20/07 Q1019 NOSIG
  • 251730Z AUTO 34013KT 9999 BKN064 BKN078 20/07 Q1019 NOSIG
  • 251700Z AUTO 34012KT 9999 SCT064 BKN074 20/07 Q1019 NOSIG
  • 251630Z AUTO 34011KT 300V020 9999 BKN064 BKN074 21/07 Q1019 NOSIG

TAF TAF LFLS
Valide du 25 à 15h jusqu'au 26 à 15h UTC


251400Z 2515/2615 36016KT 9999 BKN050
BECMG 2518/2522 36006KT
BECMG 2611/2613 36016KT
ATIS : +33 4 76 65 55 89



MET'MAP, la Météo Aéronautique d'un coup d'oeil ! - Copyright ORBIFLY Décembre 2007 - Disclaimer

ORBIFLY MET'MAP TEAM :

Programmation & Développement : Alexandra Zaïnal
Sur une idée originale de : Baudouin d'Aumeries
Soutien technique & logistique : Manuel Goepfert
Assistance : Marc-Olivier Méhu

Contact : metmap@orbifly.com




SOURCES & CREDITS :

   NOAA